sensor_id;sensor_type;location;lat;lon;timestamp;pressure;altitude;pressure_sealevel;temperature;humidity
12879;BME280;20617;49.476;10.986;2023-04-25T00:00:51;97515.38;;;10.43;100.00
12879;BME280;20617;49.476;10.986;2023-04-25T00:02:57;97516.22;;;10.44;100.00
12879;BME280;20617;49.476;10.986;2023-04-25T00:05:02;97512.34;;;10.35;100.00
12879;BME280;20617;49.476;10.986;2023-04-25T00:07:07;97509.50;;;10.40;100.00
12879;BME280;20617;49.476;10.986;2023-04-25T00:09:16;97509.91;;;10.32;100.00
12879;BME280;20617;49.476;10.986;2023-04-25T00:11:21;97505.56;;;10.33;100.00
12879;BME280;20617;49.476;10.986;2023-04-25T00:13:26;97505.47;;;10.34;100.00
12879;BME280;20617;49.476;10.986;2023-04-25T00:15:31;97506.41;;;10.33;100.00
12879;BME280;20617;49.476;10.986;2023-04-25T00:17:42;97515.72;;;10.37;100.00
12879;BME280;20617;49.476;10.986;2023-04-25T00:19:47;97510.94;;;10.30;100.00
12879;BME280;20617;49.476;10.986;2023-04-25T00:21:54;97510.44;;;10.39;100.00
12879;BME280;20617;49.476;10.986;2023-04-25T00:23:59;97505.75;;;10.46;100.00
12879;BME280;20617;49.476;10.986;2023-04-25T00:26:04;97514.50;;;10.60;100.00
12879;BME280;20617;49.476;10.986;2023-04-25T00:28:09;97508.88;;;10.68;100.00
12879;BME280;20617;49.476;10.986;2023-04-25T00:30:15;97507.59;;;10.75;100.00
12879;BME280;20617;49.476;10.986;2023-04-25T00:32:20;97501.41;;;10.78;100.00
12879;BME280;20617;49.476;10.986;2023-04-25T00:34:29;97501.72;;;10.87;100.00
12879;BME280;20617;49.476;10.986;2023-04-25T00:36:35;97512.06;;;10.89;100.00
12879;BME280;20617;49.476;10.986;2023-04-25T00:38:40;97504.66;;;10.97;100.00
12879;BME280;20617;49.476;10.986;2023-04-25T00:40:45;97505.91;;;11.06;100.00
12879;BME280;20617;49.476;10.986;2023-04-25T00:42:51;97511.88;;;11.08;100.00
12879;BME280;20617;49.476;10.986;2023-04-25T00:44:57;97504.66;;;10.97;100.00
12879;BME280;20617;49.476;10.986;2023-04-25T00:47:03;97497.09;;;10.93;100.00
12879;BME280;20617;49.476;10.986;2023-04-25T00:49:09;97504.66;;;10.97;100.00
12879;BME280;20617;49.476;10.986;2023-04-25T00:51:21;97498.78;;;10.94;100.00
12879;BME280;20617;49.476;10.986;2023-04-25T00:53:28;97500.72;;;10.90;100.00
12879;BME280;20617;49.476;10.986;2023-04-25T00:55:34;97502.16;;;10.80;100.00
12879;BME280;20617;49.476;10.986;2023-04-25T00:57:39;97498.31;;;10.71;100.00
12879;BME280;20617;49.476;10.986;2023-04-25T00:59:45;97496.44;;;10.73;100.00
12879;BME280;20617;49.476;10.986;2023-04-25T01:01:50;97496.00;;;10.81;100.00
12879;BME280;20617;49.476;10.986;2023-04-25T01:03:56;97498.28;;;10.87;100.00
12879;BME280;20617;49.476;10.986;2023-04-25T01:06:03;97492.81;;;10.92;100.00
12879;BME280;20617;49.476;10.986;2023-04-25T01:08:10;97497.84;;;10.79;100.00
12879;BME280;20617;49.476;10.986;2023-04-25T01:10:16;97504.41;;;10.86;100.00
12879;BME280;20617;49.476;10.986;2023-04-25T01:12:21;97499.72;;;10.93;100.00
12879;BME280;20617;49.476;10.986;2023-04-25T01:14:27;97489.94;;;10.96;100.00
12879;BME280;20617;49.476;10.986;2023-04-25T01:16:32;97488.13;;;10.98;100.00
12879;BME280;20617;49.476;10.986;2023-04-25T01:18:41;97493.97;;;11.02;100.00
12879;BME280;20617;49.476;10.986;2023-04-25T01:20:46;97496.03;;;10.97;100.00
12879;BME280;20617;49.476;10.986;2023-04-25T01:22:55;97484.91;;;10.93;100.00
12879;BME280;20617;49.476;10.986;2023-04-25T01:25:00;97490.28;;;10.90;100.00
12879;BME280;20617;49.476;10.986;2023-04-25T01:27:06;97488.31;;;10.79;100.00
12879;BME280;20617;49.476;10.986;2023-04-25T01:29:11;97486.72;;;10.77;100.00
12879;BME280;20617;49.476;10.986;2023-04-25T01:31:16;97485.72;;;10.79;100.00
12879;BME280;20617;49.476;10.986;2023-04-25T01:33:21;97481.09;;;10.69;100.00
12879;BME280;20617;49.476;10.986;2023-04-25T01:35:26;97488.97;;;10.67;100.00
12879;BME280;20617;49.476;10.986;2023-04-25T01:37:31;97481.31;;;10.64;100.00
12879;BME280;20617;49.476;10.986;2023-04-25T01:39:39;97483.25;;;10.60;100.00
12879;BME280;20617;49.476;10.986;2023-04-25T01:41:45;97481.50;;;10.61;100.00
12879;BME280;20617;49.476;10.986;2023-04-25T01:43:50;97485.38;;;10.54;100.00
12879;BME280;20617;49.476;10.986;2023-04-25T01:45:55;97484.53;;;10.53;100.00
12879;BME280;20617;49.476;10.986;2023-04-25T01:48:01;97488.22;;;10.65;100.00
12879;BME280;20617;49.476;10.986;2023-04-25T01:50:07;97488.28;;;10.63;100.00
12879;BME280;20617;49.476;10.986;2023-04-25T01:52:13;97493.16;;;10.70;100.00
12879;BME280;20617;49.476;10.986;2023-04-25T01:54:18;97498.13;;;10.74;100.00
12879;BME280;20617;49.476;10.986;2023-04-25T01:56:30;97493.53;;;10.79;100.00
12879;BME280;20617;49.476;10.986;2023-04-25T01:58:35;97502.34;;;10.77;100.00
12879;BME280;20617;49.476;10.986;2023-04-25T02:00:59;97500.06;;;10.71;100.00
12879;BME280;20617;49.476;10.986;2023-04-25T02:03:12;97500.81;;;10.73;100.00
12879;BME280;20617;49.476;10.986;2023-04-25T02:05:18;97492.91;;;10.74;100.00
12879;BME280;20617;49.476;10.986;2023-04-25T02:07:23;97492.16;;;10.72;100.00
12879;BME280;20617;49.476;10.986;2023-04-25T02:09:28;97488.88;;;10.69;100.00
12879;BME280;20617;49.476;10.986;2023-04-25T02:11:40;97489.66;;;10.71;100.00
12879;BME280;20617;49.476;10.986;2023-04-25T02:14:01;97495.09;;;10.66;100.00
12879;BME280;20617;49.476;10.986;2023-04-25T02:16:13;97489.97;;;10.64;100.00
12879;BME280;20617;49.476;10.986;2023-04-25T02:18:19;97494.59;;;10.59;100.00
12879;BME280;20617;49.476;10.986;2023-04-25T02:20:24;97493.91;;;10.56;100.00
12879;BME280;20617;49.476;10.986;2023-04-25T02:22:30;97493.91;;;10.56;100.00
12879;BME280;20617;49.476;10.986;2023-04-25T02:24:36;97497.53;;;10.53;100.00
12879;BME280;20617;49.476;10.986;2023-04-25T02:26:43;97496.59;;;10.54;100.00
12879;BME280;20617;49.476;10.986;2023-04-25T02:28:48;97490.63;;;10.52;100.00
12879;BME280;20617;49.476;10.986;2023-04-25T02:30:53;97491.81;;;10.47;100.00
12879;BME280;20617;49.476;10.986;2023-04-25T02:32:59;97486.88;;;10.42;100.00
12879;BME280;20617;49.476;10.986;2023-04-25T02:35:05;97485.34;;;10.38;100.00
12879;BME280;20617;49.476;10.986;2023-04-25T02:37:10;97480.91;;;10.40;100.00
12879;BME280;20617;49.476;10.986;2023-04-25T02:39:15;97479.06;;;10.42;100.00
12879;BME280;20617;49.476;10.986;2023-04-25T02:41:20;97477.28;;;10.42;100.00
12879;BME280;20617;49.476;10.986;2023-04-25T02:43:27;97477.13;;;10.46;100.00
12879;BME280;20617;49.476;10.986;2023-04-25T02:45:32;97475.34;;;10.46;100.00
12879;BME280;20617;49.476;10.986;2023-04-25T02:47:37;97477.06;;;10.47;100.00
12879;BME280;20617;49.476;10.986;2023-04-25T02:49:42;97471.84;;;10.47;100.00
12879;BME280;20617;49.476;10.986;2023-04-25T02:51:48;97470.91;;;10.48;100.00
12879;BME280;20617;49.476;10.986;2023-04-25T02:53:53;97471.84;;;10.47;100.00
12879;BME280;20617;49.476;10.986;2023-04-25T02:55:57;97473.69;;;10.45;100.00
12879;BME280;20617;49.476;10.986;2023-04-25T02:58:03;97469.16;;;10.49;100.00
12879;BME280;20617;49.476;10.986;2023-04-25T03:00:21;97469.81;;;10.52;100.00
12879;BME280;20617;49.476;10.986;2023-04-25T03:02:26;97469.59;;;10.57;100.00
12879;BME280;20617;49.476;10.986;2023-04-25T03:04:31;97460.78;;;10.59;100.00
12879;BME280;20617;49.476;10.986;2023-04-25T03:06:36;97461.66;;;10.58;100.00
12879;BME280;20617;49.476;10.986;2023-04-25T03:08:41;97459.41;;;10.52;100.00
12879;BME280;20617;49.476;10.986;2023-04-25T03:10:47;97460.41;;;10.50;100.00
12879;BME280;20617;49.476;10.986;2023-04-25T03:12:54;97464.19;;;10.44;100.00
12879;BME280;20617;49.476;10.986;2023-04-25T03:14:59;97459.06;;;10.42;100.00
12879;BME280;20617;49.476;10.986;2023-04-25T03:17:07;97461.91;;;10.38;100.00
12879;BME280;20617;49.476;10.986;2023-04-25T03:19:12;97457.81;;;10.34;100.00
12879;BME280;20617;49.476;10.986;2023-04-25T03:21:17;97457.16;;;10.30;100.00
12879;BME280;20617;49.476;10.986;2023-04-25T03:23:22;97453.72;;;10.30;100.00
12879;BME280;20617;49.476;10.986;2023-04-25T03:25:27;97455.69;;;10.25;100.00
12879;BME280;20617;49.476;10.986;2023-04-25T03:27:32;97458.50;;;10.20;100.00
12879;BME280;20617;49.476;10.986;2023-04-25T03:29:37;97459.50;;;10.17;100.00
12879;BME280;20617;49.476;10.986;2023-04-25T03:31:43;97462.38;;;10.13;100.00
12879;BME280;20617;49.476;10.986;2023-04-25T03:33:51;97461.38;;;10.15;100.00
12879;BME280;20617;49.476;10.986;2023-04-25T03:35:58;97454.47;;;10.14;100.00
12879;BME280;20617;49.476;10.986;2023-04-25T03:38:03;97453.56;;;10.15;100.00
12879;BME280;20617;49.476;10.986;2023-04-25T03:40:13;97455.63;;;10.09;100.00
12879;BME280;20617;49.476;10.986;2023-04-25T03:42:40;97461.09;;;10.04;100.00
12879;BME280;20617;49.476;10.986;2023-04-25T03:44:46;97457.41;;;10.08;100.00
12879;BME280;20617;49.476;10.986;2023-04-25T03:46:51;97456.34;;;10.12;100.00
12879;BME280;20617;49.476;10.986;2023-04-25T03:49:00;97464.53;;;10.05;100.00
12879;BME280;20617;49.476;10.986;2023-04-25T03:51:28;97465.31;;;10.07;100.00
12879;BME280;20617;49.476;10.986;2023-04-25T03:53:33;97458.94;;;10.12;100.00
12879;BME280;20617;49.476;10.986;2023-04-25T03:55:56;97463.88;;;10.17;100.00
12879;BME280;20617;49.476;10.986;2023-04-25T03:58:02;97456.69;;;10.22;100.00
12879;BME280;20617;49.476;10.986;2023-04-25T04:00:08;97469.91;;;10.17;100.00
12879;BME280;20617;49.476;10.986;2023-04-25T04:02:15;97465.25;;;10.24;100.00
12879;BME280;20617;49.476;10.986;2023-04-25T04:04:23;97461.88;;;10.22;100.00
12879;BME280;20617;49.476;10.986;2023-04-25T04:06:29;97460.66;;;10.29;100.00
12879;BME280;20617;49.476;10.986;2023-04-25T04:08:42;97461.53;;;10.12;100.00
12879;BME280;20617;49.476;10.986;2023-04-25T04:10:47;97467.47;;;10.14;100.00
12879;BME280;20617;49.476;10.986;2023-04-25T04:12:52;97465.72;;;10.15;100.00
12879;BME280;20617;49.476;10.986;2023-04-25T04:14:57;97469.56;;;10.08;100.00
12879;BME280;20617;49.476;10.986;2023-04-25T04:17:02;97473.69;;;10.12;100.00
12879;BME280;20617;49.476;10.986;2023-04-25T04:19:08;97471.19;;;10.10;100.00
12879;BME280;20617;49.476;10.986;2023-04-25T04:21:20;97464.28;;;10.09;100.00
12879;BME280;20617;49.476;10.986;2023-04-25T04:23:25;97473.19;;;10.05;100.00
12879;BME280;20617;49.476;10.986;2023-04-25T04:25:32;97477.94;;;9.97;100.00
12879;BME280;20617;49.476;10.986;2023-04-25T04:27:47;97472.28;;;9.89;100.00
12879;BME280;20617;49.476;10.986;2023-04-25T04:30:03;97480.34;;;9.84;100.00
12879;BME280;20617;49.476;10.986;2023-04-25T04:32:14;97489.75;;;9.87;100.00
12879;BME280;20617;49.476;10.986;2023-04-25T04:34:19;97485.03;;;9.78;100.00
12879;BME280;20617;49.476;10.986;2023-04-25T04:36:29;97488.47;;;9.61;100.00
12879;BME280;20617;49.476;10.986;2023-04-25T04:38:35;97493.66;;;9.61;100.00
12879;BME280;20617;49.476;10.986;2023-04-25T04:40:44;97489.69;;;9.53;100.00
12879;BME280;20617;49.476;10.986;2023-04-25T04:43:12;97497.31;;;9.39;100.00
12879;BME280;20617;49.476;10.986;2023-04-25T04:45:57;97492.59;;;9.47;100.00
12879;BME280;20617;49.476;10.986;2023-04-25T04:48:17;97495.88;;;9.51;100.00
12879;BME280;20617;49.476;10.986;2023-04-25T04:50:29;97503.97;;;9.62;100.00
12879;BME280;20617;49.476;10.986;2023-04-25T04:52:59;97496.88;;;9.48;100.00
12879;BME280;20617;49.476;10.986;2023-04-25T04:55:16;97500.00;;;9.55;100.00
12879;BME280;20617;49.476;10.986;2023-04-25T04:57:47;97500.69;;;9.41;100.00
12879;BME280;20617;49.476;10.986;2023-04-25T05:00:08;97506.34;;;9.32;100.00
12879;BME280;20617;49.476;10.986;2023-04-25T05:02:41;97502.13;;;9.29;100.00
12879;BME280;20617;49.476;10.986;2023-04-25T05:05:08;97507.63;;;9.23;100.00
12879;BME280;20617;49.476;10.986;2023-04-25T05:07:28;97513.66;;;9.24;100.00
12879;BME280;20617;49.476;10.986;2023-04-25T05:09:38;97516.19;;;9.25;100.00
12879;BME280;20617;49.476;10.986;2023-04-25T05:12:15;97510.84;;;9.28;100.00
12879;BME280;20617;49.476;10.986;2023-04-25T05:14:26;97519.53;;;9.27;100.00
12879;BME280;20617;49.476;10.986;2023-04-25T05:16:57;97507.84;;;9.19;100.00
12879;BME280;20617;49.476;10.986;2023-04-25T05:19:12;97509.84;;;9.14;100.00
12879;BME280;20617;49.476;10.986;2023-04-25T05:21:24;97514.16;;;9.13;100.00
12879;BME280;20617;49.476;10.986;2023-04-25T05:23:40;97519.31;;;8.96;100.00
12879;BME280;20617;49.476;10.986;2023-04-25T05:26:08;97518.44;;;8.97;100.00
12879;BME280;20617;49.476;10.986;2023-04-25T05:28:28;97521.72;;;9.00;100.00
12879;BME280;20617;49.476;10.986;2023-04-25T05:30:50;97520.88;;;9.00;100.00
12879;BME280;20617;49.476;10.986;2023-04-25T05:33:02;97525.16;;;9.01;100.00
12879;BME280;20617;49.476;10.986;2023-04-25T05:35:07;97525.22;;;8.99;100.00
12879;BME280;20617;49.476;10.986;2023-04-25T05:37:20;97525.00;;;9.04;100.00
12879;BME280;20617;49.476;10.986;2023-04-25T05:39:45;97521.28;;;9.10;100.00
12879;BME280;20617;49.476;10.986;2023-04-25T05:42:11;97529.22;;;9.06;100.00
12879;BME280;20617;49.476;10.986;2023-04-25T05:44:42;97536.16;;;9.06;100.00
12879;BME280;20617;49.476;10.986;2023-04-25T05:47:11;97532.19;;;8.99;100.00
12879;BME280;20617;49.476;10.986;2023-04-25T05:49:34;97541.84;;;8.95;100.00
12879;BME280;20617;49.476;10.986;2023-04-25T05:51:54;97541.84;;;8.95;100.00
12879;BME280;20617;49.476;10.986;2023-04-25T05:54:22;97542.44;;;9.02;100.00
12879;BME280;20617;49.476;10.986;2023-04-25T05:56:29;97548.84;;;9.12;100.00
12879;BME280;20617;49.476;10.986;2023-04-25T05:58:36;97541.44;;;9.22;100.00
12879;BME280;20617;49.476;10.986;2023-04-25T06:00:46;97543.81;;;9.09;100.00
12879;BME280;20617;49.476;10.986;2023-04-25T06:02:51;97541.41;;;9.04;100.00
12879;BME280;20617;49.476;10.986;2023-04-25T06:04:57;97548.69;;;9.15;100.00
12879;BME280;20617;49.476;10.986;2023-04-25T06:07:06;97548.56;;;9.18;100.00
12879;BME280;20617;49.476;10.986;2023-04-25T06:09:11;97552.91;;;9.18;100.00
12879;BME280;20617;49.476;10.986;2023-04-25T06:11:16;97557.47;;;9.13;100.00
12879;BME280;20617;49.476;10.986;2023-04-25T06:13:21;97560.44;;;9.05;100.00
12879;BME280;20617;49.476;10.986;2023-04-25T06:15:29;97566.03;;;9.15;100.00
12879;BME280;20617;49.476;10.986;2023-04-25T06:17:35;97565.34;;;9.11;100.00
12879;BME280;20617;49.476;10.986;2023-04-25T06:19:50;97576.38;;;9.16;100.00
12879;BME280;20617;49.476;10.986;2023-04-25T06:21:55;97581.41;;;9.19;100.00
12879;BME280;20617;49.476;10.986;2023-04-25T06:24:00;97580.78;;;9.14;100.00
12879;BME280;20617;49.476;10.986;2023-04-25T06:26:09;97586.97;;;9.12;100.00
12879;BME280;20617;49.476;10.986;2023-04-25T06:28:17;97589.91;;;9.23;100.00
12879;BME280;20617;49.476;10.986;2023-04-25T06:30:24;97580.88;;;9.30;100.00
12879;BME280;20617;49.476;10.986;2023-04-25T06:32:37;97581.31;;;9.40;100.00
12879;BME280;20617;49.476;10.986;2023-04-25T06:34:43;97580.44;;;9.39;100.00
12879;BME280;20617;49.476;10.986;2023-04-25T06:36:48;97580.16;;;9.45;100.00
12879;BME280;20617;49.476;10.986;2023-04-25T06:38:55;97572.44;;;9.44;100.00
12879;BME280;20617;49.476;10.986;2023-04-25T06:41:00;97573.75;;;9.52;100.00
12879;BME280;20617;49.476;10.986;2023-04-25T06:43:09;97566.63;;;9.56;100.00
12879;BME280;20617;49.476;10.986;2023-04-25T06:45:32;97569.69;;;9.64;100.00
12879;BME280;20617;49.476;10.986;2023-04-25T06:47:40;97577.03;;;9.73;100.00
12879;BME280;20617;49.476;10.986;2023-04-25T06:49:45;97580.16;;;9.80;100.00
12879;BME280;20617;49.476;10.986;2023-04-25T06:51:50;97573.66;;;9.89;100.00
12879;BME280;20617;49.476;10.986;2023-04-25T06:53:55;97560.97;;;9.83;100.00
12879;BME280;20617;49.476;10.986;2023-04-25T06:56:07;97554.94;;;9.65;100.00
12879;BME280;20617;49.476;10.986;2023-04-25T06:58:35;97556.19;;;9.58;100.00
12879;BME280;20617;49.476;10.986;2023-04-25T07:00:49;97564.81;;;9.58;100.00
12879;BME280;20617;49.476;10.986;2023-04-25T07:03:00;97558.16;;;9.52;100.00
12879;BME280;20617;49.476;10.986;2023-04-25T07:05:06;97563.28;;;9.54;100.00
12879;BME280;20617;49.476;10.986;2023-04-25T07:07:11;97558.19;;;9.34;100.00
12879;BME280;20617;49.476;10.986;2023-04-25T07:09:25;97572.19;;;9.31;100.00
12879;BME280;20617;49.476;10.986;2023-04-25T07:11:30;97566.84;;;9.34;100.00
12879;BME280;20617;49.476;10.986;2023-04-25T07:13:35;97569.31;;;9.37;100.00
12879;BME280;20617;49.476;10.986;2023-04-25T07:15:41;97559.22;;;9.12;100.00
12879;BME280;20617;49.476;10.986;2023-04-25T07:17:47;97577.69;;;8.87;100.00
12879;BME280;20617;49.476;10.986;2023-04-25T07:19:54;97597.19;;;8.58;100.00
12879;BME280;20617;49.476;10.986;2023-04-25T07:22:01;97615.06;;;8.45;100.00
12879;BME280;20617;49.476;10.986;2023-04-25T07:24:07;97617.38;;;8.31;100.00
12879;BME280;20617;49.476;10.986;2023-04-25T07:26:16;97619.56;;;8.20;100.00
12879;BME280;20617;49.476;10.986;2023-04-25T07:28:49;97627.56;;;8.35;100.00
12879;BME280;20617;49.476;10.986;2023-04-25T07:30:54;97626.00;;;8.52;100.00
12879;BME280;20617;49.476;10.986;2023-04-25T07:33:00;97622.00;;;8.64;100.00
12879;BME280;20617;49.476;10.986;2023-04-25T07:35:08;97615.44;;;8.75;100.00
12879;BME280;20617;49.476;10.986;2023-04-25T07:37:15;97604.59;;;8.67;100.00
12879;BME280;20617;49.476;10.986;2023-04-25T07:39:34;97608.56;;;8.74;100.00
12879;BME280;20617;49.476;10.986;2023-04-25T07:41:42;97602.22;;;8.81;100.00
12879;BME280;20617;49.476;10.986;2023-04-25T07:43:53;97594.00;;;8.91;100.00
12879;BME280;20617;49.476;10.986;2023-04-25T07:45:58;97600.72;;;8.95;100.00
12879;BME280;20617;49.476;10.986;2023-04-25T07:48:05;97596.31;;;8.97;100.00
12879;BME280;20617;49.476;10.986;2023-04-25T07:50:15;97609.72;;;8.88;100.00
12879;BME280;20617;49.476;10.986;2023-04-25T07:52:21;97619.50;;;8.81;100.00
12879;BME280;20617;49.476;10.986;2023-04-25T07:54:35;97662.41;;;8.28;100.00
12879;BME280;20617;49.476;10.986;2023-04-25T07:56:47;97707.31;;;8.08;100.00
12879;BME280;20617;49.476;10.986;2023-04-25T07:58:56;97730.19;;;7.99;100.00
12879;BME280;20617;49.476;10.986;2023-04-25T08:01:01;97729.59;;;7.92;100.00
12879;BME280;20617;49.476;10.986;2023-04-25T08:03:09;97708.31;;;8.06;100.00
12879;BME280;20617;49.476;10.986;2023-04-25T08:05:19;97697.84;;;8.29;100.00
12879;BME280;20617;49.476;10.986;2023-04-25T08:07:32;97676.72;;;8.38;100.00
12879;BME280;20617;49.476;10.986;2023-04-25T08:09:42;97674.91;;;8.61;100.00
12879;BME280;20617;49.476;10.986;2023-04-25T08:11:56;97670.78;;;8.76;100.00
12879;BME280;20617;49.476;10.986;2023-04-25T08:14:05;97667.09;;;9.00;100.00
12879;BME280;20617;49.476;10.986;2023-04-25T08:16:11;97657.84;;;9.14;100.00
12879;BME280;20617;49.476;10.986;2023-04-25T08:18:16;97639.28;;;9.21;100.00
12879;BME280;20617;49.476;10.986;2023-04-25T08:20:25;97650.06;;;9.50;100.00
12879;BME280;20617;49.476;10.986;2023-04-25T08:22:32;97638.41;;;9.59;100.00
12879;BME280;20617;49.476;10.986;2023-04-25T08:24:55;97633.16;;;9.60;100.00
12879;BME280;20617;49.476;10.986;2023-04-25T08:27:01;97621.44;;;9.51;100.00
12879;BME280;20617;49.476;10.986;2023-04-25T08:29:06;97624.38;;;9.44;100.00
12879;BME280;20617;49.476;10.986;2023-04-25T08:31:14;97627.19;;;9.58;100.00
12879;BME280;20617;49.476;10.986;2023-04-25T08:33:37;97631.47;;;9.77;100.00
12879;BME280;20617;49.476;10.986;2023-04-25T08:35:54;97629.66;;;9.96;100.00
12879;BME280;20617;49.476;10.986;2023-04-25T08:38:01;97632.72;;;10.22;100.00
12879;BME280;20617;49.476;10.986;2023-04-25T08:40:11;97618.19;;;10.35;100.00
12879;BME280;20617;49.476;10.986;2023-04-25T08:42:31;97630.72;;;10.27;100.00
12879;BME280;20617;49.476;10.986;2023-04-25T08:44:38;97622.00;;;10.10;100.00
12879;BME280;20617;49.476;10.986;2023-04-25T08:46:45;97624.31;;;10.16;100.00
12879;BME280;20617;49.476;10.986;2023-04-25T08:49:05;97630.59;;;10.30;100.00
12879;BME280;20617;49.476;10.986;2023-04-25T08:51:16;97634.59;;;10.18;100.00
12879;BME280;20617;49.476;10.986;2023-04-25T08:53:28;97637.69;;;10.09;100.00
12879;BME280;20617;49.476;10.986;2023-04-25T08:55:38;97641.66;;;9.98;100.00
12879;BME280;20617;49.476;10.986;2023-04-25T08:57:45;97637.91;;;10.04;100.00
12879;BME280;20617;49.476;10.986;2023-04-25T08:59:51;97644.63;;;10.08;100.00
12879;BME280;20617;49.476;10.986;2023-04-25T09:01:58;97652.81;;;9.83;100.00
12879;BME280;20617;49.476;10.986;2023-04-25T09:04:05;97652.66;;;9.69;100.00
12879;BME280;20617;49.476;10.986;2023-04-25T09:06:13;97655.16;;;9.70;100.00
12879;BME280;20617;49.476;10.986;2023-04-25T09:08:18;97656.47;;;9.79;100.00
12879;BME280;20617;49.476;10.986;2023-04-25T09:10:23;97651.75;;;9.87;100.00
12879;BME280;20617;49.476;10.986;2023-04-25T09:12:31;97646.19;;;9.95;100.00
12879;BME280;20617;49.476;10.986;2023-04-25T09:14:37;97650.47;;;9.96;100.00
12879;BME280;20617;49.476;10.986;2023-04-25T09:17:00;97650.97;;;9.85;100.00
12879;BME280;20617;49.476;10.986;2023-04-25T09:19:21;97655.66;;;9.96;100.00
12879;BME280;20617;49.476;10.986;2023-04-25T09:21:53;97654.06;;;10.11;100.00
12879;BME280;20617;49.476;10.986;2023-04-25T09:23:59;97640.69;;;10.36;100.00
12879;BME280;20617;49.476;10.986;2023-04-25T09:26:06;97647.31;;;10.59;100.00
12879;BME280;20617;49.476;10.986;2023-04-25T09:28:12;97636.94;;;10.75;100.00
12879;BME280;20617;49.476;10.986;2023-04-25T09:30:17;97639.50;;;10.92;100.00
12879;BME280;20617;49.476;10.986;2023-04-25T09:32:35;97634.16;;;10.78;100.00
12879;BME280;20617;49.476;10.986;2023-04-25T09:34:43;97626.69;;;10.72;100.00
12879;BME280;20617;49.476;10.986;2023-04-25T09:36:56;97627.88;;;10.82;100.00
12879;BME280;20617;49.476;10.986;2023-04-25T09:39:28;97632.22;;;10.65;100.00
12879;BME280;20617;49.476;10.986;2023-04-25T09:41:44;97633.44;;;10.58;100.00
12879;BME280;20617;49.476;10.986;2023-04-25T09:43:50;97633.22;;;10.79;100.00
12879;BME280;20617;49.476;10.986;2023-04-25T09:45:55;97637.91;;;11.21;100.00
12879;BME280;20617;49.476;10.986;2023-04-25T09:48:05;97628.13;;;11.56;100.00
12879;BME280;20617;49.476;10.986;2023-04-25T09:50:17;97627.97;;;11.75;100.00
12879;BME280;20617;49.476;10.986;2023-04-25T09:52:37;97625.34;;;11.91;100.00
12879;BME280;20617;49.476;10.986;2023-04-25T09:54:56;97629.19;;;11.84;100.00
12879;BME280;20617;49.476;10.986;2023-04-25T09:57:11;97630.47;;;11.77;100.00
12879;BME280;20617;49.476;10.986;2023-04-25T09:59:18;97627.63;;;11.66;100.00
12879;BME280;20617;49.476;10.986;2023-04-25T10:01:25;97627.31;;;11.40;100.00
12879;BME280;20617;49.476;10.986;2023-04-25T10:03:40;97624.66;;;11.26;100.00
12879;BME280;20617;49.476;10.986;2023-04-25T10:06:07;97629.69;;;11.29;100.00
12879;BME280;20617;49.476;10.986;2023-04-25T10:08:16;97629.00;;;11.41;100.00
12879;BME280;20617;49.476;10.986;2023-04-25T10:10:21;97629.66;;;11.45;100.00
12879;BME280;20617;49.476;10.986;2023-04-25T10:12:33;97638.16;;;11.64;100.00
12879;BME280;20617;49.476;10.986;2023-04-25T10:14:38;97635.59;;;11.94;100.00
12879;BME280;20617;49.476;10.986;2023-04-25T10:16:45;97618.56;;;12.03;100.00
12879;BME280;20617;49.476;10.986;2023-04-25T10:18:50;97618.22;;;12.23;100.00
12879;BME280;20617;49.476;10.986;2023-04-25T10:20:57;97617.13;;;12.13;100.00
12879;BME280;20617;49.476;10.986;2023-04-25T10:23:08;97617.66;;;12.18;100.00
12879;BME280;20617;49.476;10.986;2023-04-25T10:25:19;97626.34;;;12.33;100.00
12879;BME280;20617;49.476;10.986;2023-04-25T10:27:27;97630.03;;;12.45;100.00
12879;BME280;20617;49.476;10.986;2023-04-25T10:29:32;97625.16;;;12.53;100.00
12879;BME280;20617;49.476;10.986;2023-04-25T10:31:44;97618.19;;;12.68;100.00
12879;BME280;20617;49.476;10.986;2023-04-25T10:33:49;97619.47;;;12.46;100.00
12879;BME280;20617;49.476;10.986;2023-04-25T10:35:57;97627.63;;;12.12;100.00
12879;BME280;20617;49.476;10.986;2023-04-25T10:38:04;97625.16;;;11.94;100.00
12879;BME280;20617;49.476;10.986;2023-04-25T10:40:10;97619.88;;;11.96;100.00
12879;BME280;20617;49.476;10.986;2023-04-25T10:42:21;97622.16;;;12.16;100.00
12879;BME280;20617;49.476;10.986;2023-04-25T10:44:27;97625.25;;;12.37;100.00
12879;BME280;20617;49.476;10.986;2023-04-25T10:46:33;97619.97;;;12.09;100.00
12879;BME280;20617;49.476;10.986;2023-04-25T10:48:45;97616.25;;;12.13;100.00
12879;BME280;20617;49.476;10.986;2023-04-25T10:51:06;97616.25;;;12.13;100.00
12879;BME280;20617;49.476;10.986;2023-04-25T10:53:14;97614.28;;;12.02;100.00
12879;BME280;20617;49.476;10.986;2023-04-25T10:55:20;97620.53;;;11.99;100.00
12879;BME280;20617;49.476;10.986;2023-04-25T10:57:32;97626.38;;;12.03;100.00
12879;BME280;20617;49.476;10.986;2023-04-25T10:59:39;97623.09;;;12.30;100.00
12879;BME280;20617;49.476;10.986;2023-04-25T11:01:46;97622.66;;;12.52;100.00
12879;BME280;20617;49.476;10.986;2023-04-25T11:03:57;97623.22;;;12.71;100.00
12879;BME280;20617;49.476;10.986;2023-04-25T11:06:04;97616.03;;;13.03;100.00
12879;BME280;20617;49.476;10.986;2023-04-25T11:08:11;97617.88;;;13.16;100.00
12879;BME280;20617;49.476;10.986;2023-04-25T11:10:18;97631.72;;;13.03;99.48
12879;BME280;20617;49.476;10.986;2023-04-25T11:12:24;97626.75;;;12.70;100.00